createdAt,value
2018-04-29T00:00:06.678Z,26.8
2018-04-29T00:00:56.478Z,26.7
2018-04-29T00:01:46.500Z,26.7
2018-04-29T00:02:36.841Z,26.7
2018-04-29T00:03:26.931Z,26.7
2018-04-29T00:04:16.996Z,26.7
2018-04-29T00:05:06.500Z,26.7
2018-04-29T00:05:56.833Z,26.7
2018-04-29T00:06:46.631Z,26.7
2018-04-29T00:07:37.273Z,26.7
2018-04-29T00:08:27.030Z,26.7
2018-04-29T00:09:16.561Z,26.6
2018-04-29T00:10:07.446Z,26.6
2018-04-29T00:10:57.014Z,26.6
2018-04-29T00:11:47.538Z,26.6
2018-04-29T00:12:36.787Z,26.6
2018-04-29T00:13:27.420Z,26.6
2018-04-29T00:14:17.287Z,26.6
2018-04-29T00:15:07.528Z,26.6
2018-04-29T00:15:56.747Z,26.6
2018-04-29T00:16:47.702Z,26.6
2018-04-29T00:17:37.468Z,26.6
2018-04-29T00:18:27.515Z,26.6
2018-04-29T00:19:17.867Z,26.6
2018-04-29T00:20:07.368Z,26.6
2018-04-29T00:20:58.353Z,26.6
2018-04-29T00:21:48.026Z,26.6
2018-04-29T00:22:37.568Z,26.6
2018-04-29T00:23:27.091Z,26.6
2018-04-29T00:24:18.076Z,26.6
2018-04-29T00:25:07.778Z,26.6
2018-04-29T00:25:58.381Z,26.6
2018-04-29T00:26:48.708Z,26.6
2018-04-29T00:27:37.982Z,26.5
2018-04-29T00:28:27.734Z,26.5
2018-04-29T00:29:18.615Z,26.5
2018-04-29T00:30:08.702Z,26.5
2018-04-29T00:30:59.056Z,26.5
2018-04-29T00:31:49.118Z,26.6
2018-04-29T00:32:38.927Z,26.5
2018-04-29T00:33:28.952Z,26.5
2018-04-29T00:34:19.014Z,26.5
2018-04-29T00:35:08.812Z,26.5
2018-04-29T00:35:59.470Z,26.5
2018-04-29T00:36:48.935Z,26.5
2018-04-29T00:37:39.011Z,26.5
2018-04-29T00:38:29.081Z,26.5
2018-04-29T00:39:19.670Z,26.5
2018-04-29T00:40:08.917Z,26.5
2018-04-29T00:40:59.251Z,26.5
2018-04-29T00:41:49.597Z,26.5
2018-04-29T00:42:39.117Z,26.5
2018-04-29T00:43:29.749Z,26.5
2018-04-29T00:44:19.863Z,26.5
2018-04-29T00:45:09.857Z,26.4
2018-04-29T00:45:59.664Z,26.5
2018-04-29T00:46:50.263Z,26.4
2018-04-29T00:47:40.084Z,26.4
2018-04-29T00:48:30.106Z,26.4
2018-04-29T00:49:20.452Z,26.4
2018-04-29T00:50:09.440Z,26.4
2018-04-29T00:51:00.653Z,26.4
2018-04-29T00:51:50.363Z,26.4
2018-04-29T00:52:40.148Z,26.4
2018-04-29T00:53:30.735Z,26.4
2018-04-29T00:54:20.865Z,26.4
2018-04-29T00:55:10.898Z,26.4
2018-04-29T00:56:00.410Z,26.4
2018-04-29T00:56:50.748Z,26.4
2018-04-29T00:57:41.094Z,26.4
2018-04-29T00:58:30.898Z,26.4
2018-04-29T00:59:20.952Z,26.4
2018-04-29T01:00:11.015Z,26.4
2018-04-29T01:01:00.233Z,26.4
2018-04-29T01:01:51.220Z,26.4
2018-04-29T01:02:41.034Z,26.4
2018-04-29T01:03:31.547Z,26.4
2018-04-29T01:04:21.385Z,26.4
2018-04-29T01:05:11.417Z,26.4
2018-04-29T01:06:02.453Z,26.4
2018-04-29T01:06:51.346Z,26.4
2018-04-29T01:07:41.056Z,26.4
2018-04-29T01:08:32.023Z,26.4
2018-04-29T01:09:21.709Z,26.4
2018-04-29T01:10:12.128Z,26.4
2018-04-29T01:11:02.122Z,26.4
2018-04-29T01:11:51.649Z,26.4
2018-04-29T01:12:41.972Z,26.4
2018-04-29T01:13:31.801Z,26.4
2018-04-29T01:14:22.403Z,26.4
2018-04-29T01:15:12.206Z,26.4
2018-04-29T01:16:02.232Z,26.4
2018-04-29T01:16:52.101Z,26.4
2018-04-29T01:17:42.642Z,26.4
2018-04-29T01:18:31.890Z,26.4
2018-04-29T01:19:22.537Z,26.4
2018-04-29T01:20:12.578Z,26.4
2018-04-29T01:21:02.624Z,26.4
2018-04-29T01:21:52.958Z,26.4
2018-04-29T01:22:43.018Z,26.4
2018-04-29T01:23:32.878Z,26.4
2018-04-29T01:24:22.325Z,26.4
2018-04-29T01:25:12.977Z,26.4
2018-04-29T01:26:03.006Z,26.4
2018-04-29T01:26:52.801Z,26.4
2018-04-29T01:27:43.437Z,26.4
2018-04-29T01:28:33.508Z,26.4
2018-04-29T01:29:23.029Z,26.4
2018-04-29T01:30:13.329Z,26.4
2018-04-29T01:31:02.579Z,26.4
2018-04-29T01:31:53.471Z,26.4
2018-04-29T01:32:43.531Z,26.4
2018-04-29T01:33:33.904Z,26.4
2018-04-29T01:34:23.633Z,26.4
2018-04-29T01:35:13.140Z,26.4
2018-04-29T01:36:03.527Z,26.4
2018-04-29T01:36:54.117Z,26.4
2018-04-29T01:37:44.205Z,26.4
2018-04-29T01:38:34.066Z,26.4
2018-04-29T01:39:24.361Z,26.4
2018-04-29T01:40:14.164Z,26.4
2018-04-29T01:41:04.223Z,26.4
2018-04-29T01:41:53.708Z,26.4
2018-04-29T01:42:43.464Z,26.3
2018-04-29T01:43:33.489Z,26.4
2018-04-29T01:44:24.191Z,26.4
2018-04-29T01:45:13.933Z,26.3
2018-04-29T01:46:04.573Z,26.4
2018-04-29T01:46:54.364Z,26.3
2018-04-29T01:47:44.690Z,26.4
2018-04-29T01:48:35.040Z,26.4
2018-04-29T01:49:25.163Z,26.4
2018-04-29T01:50:15.165Z,26.4
2018-04-29T01:51:05.270Z,26.3
2018-04-29T01:51:55.020Z,26.4
2018-04-29T01:52:45.347Z,26.4
2018-04-29T01:53:34.314Z,26.4
2018-04-29T01:54:25.487Z,26.4
2018-04-29T01:55:15.295Z,26.4
2018-04-29T01:56:05.375Z,26.3
2018-04-29T01:56:54.870Z,26.4
2018-04-29T01:57:45.495Z,26.3
2018-04-29T01:58:34.720Z,26.4
2018-04-29T01:59:24.764Z,26.3
2018-04-29T02:00:15.698Z,26.3
2018-04-29T02:01:06.015Z,26.3
2018-04-29T02:01:55.509Z,26.4
2018-04-29T02:02:45.607Z,26.3
2018-04-29T02:03:35.724Z,26.3
2018-04-29T02:04:25.500Z,26.3
2018-04-29T02:05:15.857Z,26.3
2018-04-29T02:06:05.633Z,26.4
2018-04-29T02:06:55.712Z,26.4
2018-04-29T02:07:46.017Z,26.4
2018-04-29T02:08:35.822Z,26.3
2018-04-29T02:09:25.908Z,26.3
2018-04-29T02:10:15.642Z,26.3
2018-04-29T02:11:05.954Z,26.3
2018-04-29T02:11:56.594Z,26.3
2018-04-29T02:12:46.662Z,26.3
2018-04-29T02:13:36.179Z,26.3
2018-04-29T02:14:26.757Z,26.3
2018-04-29T02:15:16.899Z,26.3
2018-04-29T02:16:06.903Z,26.3
2018-04-29T02:16:57.244Z,26.3
2018-04-29T02:17:46.779Z,26.3
2018-04-29T02:18:37.097Z,26.3
2018-04-29T02:19:27.448Z,26.3
2018-04-29T02:20:17.246Z,26.3
2018-04-29T02:21:07.003Z,26.3
2018-04-29T02:21:57.628Z,26.3
2018-04-29T02:22:46.862Z,26.3
2018-04-29T02:23:37.177Z,26.3
2018-04-29T02:24:27.823Z,26.3
2018-04-29T02:25:17.870Z,26.3
2018-04-29T02:26:07.385Z,26.3
2018-04-29T02:26:57.810Z,26.3
2018-04-29T02:27:47.551Z,26.3
2018-04-29T02:28:37.599Z,26.3
2018-04-29T02:29:27.974Z,26.3
2018-04-29T02:30:18.051Z,26.3
2018-04-29T02:31:07.800Z,26.3
2018-04-29T02:31:58.182Z,26.3
2018-04-29T02:32:48.518Z,26.3
2018-04-29T02:33:38.026Z,26.3
2018-04-29T02:34:27.547Z,26.3
2018-04-29T02:35:18.661Z,26.3
2018-04-29T02:36:08.756Z,26.3
2018-04-29T02:36:58.556Z,26.3
2018-04-29T02:37:48.861Z,26.3
2018-04-29T02:38:38.756Z,26.3
2018-04-29T02:39:28.798Z,26.3
2018-04-29T02:40:18.801Z,26.3
2018-04-29T02:41:08.871Z,26.3
2018-04-29T02:41:58.927Z,26.3
2018-04-29T02:42:48.968Z,26.3
2018-04-29T02:43:39.069Z,26.3
2018-04-29T02:44:29.415Z,26.3
2018-04-29T02:45:19.179Z,26.3
2018-04-29T02:46:09.041Z,26.3
2018-04-29T02:46:59.311Z,26.3
2018-04-29T02:47:49.667Z,26.3
2018-04-29T02:48:39.730Z,26.3
2018-04-29T02:49:29.505Z,26.3
2018-04-29T02:50:19.287Z,26.3
2018-04-29T02:51:09.929Z,26.3
2018-04-29T02:51:59.965Z,26.3
2018-04-29T02:52:49.776Z,26.3
2018-04-29T02:53:39.855Z,26.3
2018-04-29T02:54:29.341Z,26.3
2018-04-29T02:55:19.756Z,26.3
2018-04-29T02:56:10.056Z,26.3
2018-04-29T02:57:00.143Z,26.3
2018-04-29T02:57:50.522Z,26.3
2018-04-29T02:58:40.512Z,26.3
2018-04-29T02:59:29.994Z,26.3
2018-04-29T03:00:20.110Z,26.3
2018-04-29T03:01:09.895Z,26.3
2018-04-29T03:02:00.790Z,26.3
2018-04-29T03:02:50.872Z,26.3
2018-04-29T03:03:40.922Z,26.3
2018-04-29T03:04:30.675Z,26.3
2018-04-29T03:05:20.735Z,26.3
2018-04-29T03:06:09.972Z,26.3
2018-04-29T03:07:01.183Z,26.3
2018-04-29T03:07:51.202Z,26.3
2018-04-29T03:08:40.707Z,26.3
2018-04-29T03:09:30.795Z,26.3
2018-04-29T03:10:20.839Z,26.3
2018-04-29T03:11:11.232Z,26.3
2018-04-29T03:12:00.990Z,26.3
2018-04-29T03:12:51.066Z,26.3
2018-04-29T03:13:41.372Z,26.3
2018-04-29T03:14:31.784Z,26.3
2018-04-29T03:15:21.874Z,26.3
2018-04-29T03:16:11.569Z,26.3
2018-04-29T03:17:01.364Z,26.3
2018-04-29T03:17:51.446Z,26.3
2018-04-29T03:18:42.089Z,26.3
2018-04-29T03:19:30.980Z,26.3
2018-04-29T03:20:21.343Z,26.3
2018-04-29T03:21:11.644Z,26.3
2018-04-29T03:22:01.734Z,26.3
2018-04-29T03:22:52.084Z,26.3
2018-04-29T03:23:42.403Z,26.3
2018-04-29T03:24:32.476Z,26.3
2018-04-29T03:25:22.273Z,26.3
2018-04-29T03:26:12.621Z,26.3
2018-04-29T03:27:02.101Z,26.3
2018-04-29T03:27:52.457Z,26.3
2018-04-29T03:28:42.798Z,26.3
2018-04-29T03:29:32.635Z,26.3
2018-04-29T03:30:23.004Z,26.2
2018-04-29T03:31:12.744Z,26.3
2018-04-29T03:32:02.534Z,26.3
2018-04-29T03:32:52.594Z,26.3
2018-04-29T03:33:43.178Z,26.3
2018-04-29T03:34:33.274Z,26.3
2018-04-29T03:35:23.089Z,26.3
2018-04-29T03:36:12.924Z,26.3
2018-04-29T03:37:03.061Z,26.3
2018-04-29T03:37:53.059Z,26.3
2018-04-29T03:38:42.817Z,26.3
2018-04-29T03:39:32.879Z,26.3
2018-04-29T03:40:22.938Z,26.3
2018-04-29T03:41:12.442Z,26.3
2018-04-29T03:42:03.372Z,26.3
2018-04-29T03:42:53.656Z,26.3
2018-04-29T03:43:44.016Z,26.3
2018-04-29T03:44:34.033Z,26.3
2018-04-29T03:45:22.958Z,26.3
2018-04-29T03:46:13.906Z,26.3
2018-04-29T03:47:03.944Z,26.3
2018-04-29T03:47:54.362Z,26.3
2018-04-29T03:48:44.073Z,26.3
2018-04-29T03:49:34.155Z,26.3
2018-04-29T03:50:24.219Z,26.3
2018-04-29T03:51:14.293Z,26.3
2018-04-29T03:52:04.620Z,26.3
2018-04-29T03:52:54.170Z,26.3
2018-04-29T03:53:44.775Z,26.3
2018-04-29T03:54:34.257Z,26.2
2018-04-29T03:55:24.618Z,26.3
2018-04-29T03:56:14.380Z,26.3
2018-04-29T03:57:04.538Z,26.3
2018-04-29T03:57:54.802Z,26.3
2018-04-29T03:58:45.211Z,26.3
2018-04-29T03:59:34.943Z,26.3
2018-04-29T04:00:24.703Z,26.3
2018-04-29T04:01:15.059Z,26.3
2018-04-29T04:02:04.853Z,26.3
2018-04-29T04:02:55.273Z,26.3
2018-04-29T04:03:44.986Z,26.3
2018-04-29T04:04:35.628Z,26.3
2018-04-29T04:05:24.852Z,26.3
2018-04-29T04:06:15.681Z,26.3
2018-04-29T04:07:05.800Z,26.3
2018-04-29T04:07:54.996Z,26.3
2018-04-29T04:08:45.636Z,26.3
2018-04-29T04:09:35.777Z,26.3
2018-04-29T04:10:26.019Z,26.3
2018-04-29T04:11:16.116Z,26.3
2018-04-29T04:12:06.164Z,26.2
2018-04-29T04:12:55.958Z,26.3
2018-04-29T04:13:46.307Z,26.3
2018-04-29T04:14:36.324Z,26.3
2018-04-29T04:15:26.406Z,26.3
2018-04-29T04:16:15.943Z,26.3
2018-04-29T04:17:05.993Z,26.3
2018-04-29T04:17:55.785Z,26.3
2018-04-29T04:18:46.430Z,26.3
2018-04-29T04:19:35.648Z,26.3
2018-04-29T04:20:26.822Z,26.3
2018-04-29T04:21:16.332Z,26.3
2018-04-29T04:22:06.403Z,26.2
2018-04-29T04:22:57.034Z,26.3
2018-04-29T04:23:47.960Z,26.3
2018-04-29T04:24:36.897Z,26.3
2018-04-29T04:25:27.201Z,26.2
2018-04-29T04:26:17.248Z,26.3
2018-04-29T04:27:06.513Z,26.3
2018-04-29T04:27:57.406Z,26.3
2018-04-29T04:28:47.191Z,26.3
2018-04-29T04:29:37.529Z,26.3
2018-04-29T04:30:26.474Z,26.3
2018-04-29T04:31:17.704Z,26.3
2018-04-29T04:32:07.719Z,26.3
2018-04-29T04:32:57.503Z,26.2
2018-04-29T04:33:47.314Z,26.3
2018-04-29T04:34:37.909Z,26.3
2018-04-29T04:35:27.690Z,26.3
2018-04-29T04:36:18.047Z,26.3
2018-04-29T04:37:07.270Z,26.3
2018-04-29T04:37:57.902Z,26.3
2018-04-29T04:38:47.970Z,26.3
2018-04-29T04:39:38.321Z,26.3
2018-04-29T04:40:27.556Z,26.3
2018-04-29T04:41:17.875Z,26.3
2018-04-29T04:42:08.187Z,26.3
2018-04-29T04:42:58.316Z,26.3
2018-04-29T04:43:48.320Z,26.3
2018-04-29T04:44:38.144Z,26.3
2018-04-29T04:45:28.777Z,26.3
2018-04-29T04:46:18.569Z,26.3
2018-04-29T04:47:08.887Z,26.3
2018-04-29T04:47:58.411Z,26.3
2018-04-29T04:49:24.248Z,26.3
2018-04-29T04:49:39.101Z,26.3
2018-04-29T04:50:28.628Z,26.3
2018-04-29T04:51:18.363Z,26.3
2018-04-29T04:52:08.987Z,26.3
2018-04-29T04:52:58.805Z,26.3
2018-04-29T04:53:49.387Z,26.3
2018-04-29T04:54:39.505Z,26.3
2018-04-29T04:55:29.547Z,26.3
2018-04-29T04:56:19.319Z,26.3
2018-04-29T04:57:09.169Z,26.3
2018-04-29T04:57:59.797Z,26.3
2018-04-29T04:58:49.827Z,26.3
2018-04-29T04:59:39.894Z,26.3
2018-04-29T05:00:29.370Z,26.3
2018-04-29T05:01:19.471Z,26.3
2018-04-29T05:02:09.516Z,26.3
2018-04-29T05:02:59.846Z,26.3
2018-04-29T05:03:50.212Z,26.3
2018-04-29T05:04:40.312Z,26.3
2018-04-29T05:05:30.028Z,26.3
2018-04-29T05:06:20.107Z,26.3
2018-04-29T05:07:10.184Z,26.3
2018-04-29T05:07:59.963Z,26.3
2018-04-29T05:08:50.010Z,26.3
2018-04-29T05:09:40.100Z,26.3
2018-04-29T05:10:30.746Z,26.3
2018-04-29T05:11:20.014Z,26.3
2018-04-29T05:12:09.707Z,26.3
2018-04-29T05:13:00.343Z,26.3
2018-04-29T05:13:51.929Z,26.3
2018-04-29T05:14:40.204Z,26.3
2018-04-29T05:15:31.124Z,26.3
2018-04-29T05:16:21.168Z,26.3
2018-04-29T05:17:10.940Z,26.3
2018-04-29T05:18:00.712Z,26.3
2018-04-29T05:18:50.592Z,26.3
2018-04-29T05:19:41.431Z,26.3
2018-04-29T05:20:31.289Z,26.3
2018-04-29T05:21:21.264Z,26.3
2018-04-29T05:22:11.994Z,26.3
2018-04-29T05:23:01.116Z,26.3
2018-04-29T05:23:51.446Z,26.3
2018-04-29T05:24:41.227Z,26.3
2018-04-29T05:25:31.603Z,26.3
2018-04-29T05:26:21.670Z,26.3
2018-04-29T05:27:11.978Z,26.3
2018-04-29T05:28:01.488Z,26.3
2018-04-29T05:28:52.111Z,26.3
2018-04-29T05:29:41.308Z,26.3
2018-04-29T05:30:32.228Z,26.3
2018-04-29T05:31:22.338Z,26.3
2018-04-29T05:32:11.898Z,26.3
2018-04-29T05:33:02.435Z,26.3
2018-04-29T05:33:51.186Z,26.3
2018-04-29T05:34:41.891Z,26.4
2018-04-29T05:35:33.395Z,26.3
2018-04-29T05:36:22.198Z,26.4
2018-04-29T05:37:12.001Z,26.4
2018-04-29T05:38:02.075Z,26.3
2018-04-29T05:38:52.374Z,26.3
2018-04-29T05:39:41.351Z,26.4
2018-04-29T05:40:32.257Z,26.3
2018-04-29T05:41:22.598Z,26.4
2018-04-29T05:42:12.842Z,32.7
2018-04-29T05:43:02.929Z,36.5
2018-04-29T05:43:52.716Z,37.5
2018-04-29T05:44:42.798Z,37.6
2018-04-29T05:45:33.415Z,37.6
2018-04-29T05:46:23.464Z,37.5
2018-04-29T05:47:13.260Z,37.3
2018-04-29T05:48:03.350Z,37.1
2018-04-29T05:48:53.405Z,39.4
2018-04-29T05:49:43.745Z,41.1
2018-04-29T05:50:33.794Z,41.8
2018-04-29T05:51:23.866Z,42
2018-04-29T05:52:13.377Z,41.8
2018-04-29T05:53:03.447Z,41.5
2018-04-29T05:53:53.507Z,41.1
2018-04-29T05:54:43.874Z,40.6
2018-04-29T05:55:33.349Z,40.2
2018-04-29T05:56:23.694Z,39.8
2018-04-29T05:57:13.772Z,39.3
2018-04-29T05:58:04.399Z,38.9
2018-04-29T05:58:53.927Z,38.6
2018-04-29T05:59:44.520Z,38.3
2018-04-29T06:00:34.338Z,37.9
2018-04-29T06:01:24.124Z,37.6
2018-04-29T06:02:14.707Z,37.3
2018-04-29T06:03:04.574Z,37.1
2018-04-29T06:03:54.591Z,36.9
2018-04-29T06:04:44.915Z,36.6
2018-04-29T06:05:34.148Z,38.6
2018-04-29T06:06:25.238Z,40.8
2018-04-29T06:07:15.132Z,42.8
2018-04-29T06:08:05.129Z,44
2018-04-29T06:08:54.931Z,44.4
2018-04-29T06:09:45.286Z,44.5
2018-04-29T06:10:35.076Z,44.7
2018-04-29T06:11:25.144Z,44.9
2018-04-29T06:12:15.239Z,45.2
2018-04-29T06:13:05.563Z,45.4
2018-04-29T06:13:55.363Z,45.6
2018-04-29T06:14:45.654Z,45.8
2018-04-29T06:15:35.754Z,45.9
2018-04-29T06:16:25.282Z,46
2018-04-29T06:17:15.859Z,46.1
2018-04-29T06:18:05.358Z,46.3
2018-04-29T06:18:55.267Z,46.4
2018-04-29T06:19:45.820Z,46.5
2018-04-29T06:20:37.030Z,46.6
2018-04-29T06:21:25.912Z,46.8
2018-04-29T06:22:15.985Z,46.9
2018-04-29T06:23:05.491Z,46.9
2018-04-29T06:23:56.385Z,47.1
2018-04-29T06:24:45.908Z,47.2
2018-04-29T06:25:36.258Z,47.3
2018-04-29T06:26:26.328Z,47.4
2018-04-29T06:27:16.632Z,47.5
2018-04-29T06:28:06.451Z,47.6
2018-04-29T06:28:56.520Z,47.7
2018-04-29T06:29:46.585Z,47.8
2018-04-29T06:30:36.704Z,47.9
2018-04-29T06:31:26.722Z,48
2018-04-29T06:32:17.052Z,48.1
2018-04-29T06:33:06.252Z,48.3
2018-04-29T06:33:56.879Z,48.4
2018-04-29T06:34:47.328Z,48.4
2018-04-29T06:35:36.783Z,48.5
2018-04-29T06:36:26.820Z,48.6
2018-04-29T06:37:16.842Z,48.8
2018-04-29T06:38:06.927Z,48.8
2018-04-29T06:38:57.995Z,48.9
2018-04-29T06:39:47.630Z,49
2018-04-29T06:40:37.720Z,49.1
2018-04-29T06:41:27.561Z,49.3
2018-04-29T06:42:17.584Z,49.3
2018-04-29T06:43:07.856Z,49.4
2018-04-29T06:43:57.656Z,49.5
2018-04-29T06:44:48.008Z,49.6
2018-04-29T06:45:37.782Z,49.8
2018-04-29T06:46:27.287Z,49.8
2018-04-29T06:47:17.996Z,49.9
2018-04-29T06:48:07.817Z,50
2018-04-29T06:48:58.351Z,50.1
2018-04-29T06:49:48.408Z,50.3
2018-04-29T06:50:38.196Z,50.3
2018-04-29T06:51:28.087Z,50.4
2018-04-29T06:52:18.058Z,50.6
2018-04-29T06:53:08.389Z,50.6
2018-04-29T06:53:58.745Z,50.7
2018-04-29T06:54:47.773Z,50.8
2018-04-29T06:55:38.850Z,50.9
2018-04-29T06:56:28.364Z,51
2018-04-29T06:57:19.016Z,51.1
2018-04-29T06:58:09.062Z,51.2
2018-04-29T06:58:58.613Z,51.4
2018-04-29T06:59:48.944Z,51.4
2018-04-29T07:00:39.004Z,51.6
2018-04-29T07:01:29.056Z,51.7
2018-04-29T07:02:19.393Z,51.8
2018-04-29T07:03:08.649Z,51.9
2018-04-29T07:03:58.479Z,52
2018-04-29T07:04:49.332Z,52.1
2018-04-29T07:05:39.395Z,52.3
2018-04-29T07:07:19.121Z,52.5
2018-04-29T07:08:10.138Z,52.6
2018-04-29T07:08:58.872Z,52.8
2018-04-29T07:09:49.128Z,52.9
2018-04-29T07:10:40.077Z,52.9
2018-04-29T07:11:29.528Z,53.1
2018-04-29T07:12:19.885Z,53.2
2018-04-29T07:13:10.235Z,53.3
2018-04-29T07:14:00.098Z,53.4
2018-04-29T07:14:49.940Z,53.6
2018-04-29T07:15:40.429Z,53.7
2018-04-29T07:16:30.237Z,53.8
2018-04-29T07:17:20.322Z,53.9
2018-04-29T07:18:09.826Z,54.1
2018-04-29T07:18:59.880Z,54.2
2018-04-29T07:19:50.483Z,54.3
2018-04-29T07:20:40.839Z,54.4
2018-04-29T07:21:30.420Z,54.6
2018-04-29T07:22:20.435Z,54.7
2018-04-29T07:23:10.750Z,54.8
2018-04-29T07:24:01.141Z,54.9
2018-04-29T07:24:51.223Z,55
2018-04-29T07:25:40.972Z,55.1
2018-04-29T07:26:30.752Z,55.3
2018-04-29T07:27:20.791Z,55.4
2018-04-29T07:28:11.450Z,55.5
2018-04-29T07:29:01.018Z,55.6
2018-04-29T07:29:51.077Z,55.8
2018-04-29T07:30:41.065Z,55.9
2018-04-29T07:31:31.719Z,56
2018-04-29T07:32:21.809Z,56.1
2018-04-29T07:33:10.993Z,56.2
2018-04-29T07:34:01.006Z,56.3
2018-04-29T07:34:52.008Z,56.4
2018-04-29T07:35:42.050Z,56.5
2018-04-29T07:36:31.601Z,56.6
2018-04-29T07:37:21.873Z,56.7
2018-04-29T07:38:11.972Z,56.9
2018-04-29T07:39:02.024Z,56.9
2018-04-29T07:39:51.393Z,57.1
2018-04-29T07:40:42.456Z,57.2
2018-04-29T07:41:32.247Z,57.3
2018-04-29T07:42:21.153Z,57.4
2018-04-29T07:43:12.626Z,57.5
2018-04-29T07:44:02.419Z,57.7
2018-04-29T07:44:52.467Z,57.8
2018-04-29T07:45:42.309Z,57.9
2018-04-29T07:46:33.679Z,58
2018-04-29T07:47:22.134Z,58.2
2018-04-29T07:48:12.814Z,58.3
2018-04-29T07:49:03.102Z,58.4
2018-04-29T07:49:53.224Z,58.5
2018-04-29T07:50:43.312Z,58.6
2018-04-29T07:51:33.296Z,58.8
2018-04-29T07:52:23.915Z,58.8
2018-04-29T07:53:13.159Z,58.9
2018-04-29T07:54:03.335Z,59.1
2018-04-29T07:54:53.386Z,59.2
2018-04-29T07:55:43.367Z,59.3
2018-04-29T07:56:33.231Z,59.4
2018-04-29T07:57:23.728Z,59.5
2018-04-29T07:58:13.791Z,59.7
2018-04-29T07:59:03.316Z,59.7
2018-04-29T07:59:53.666Z,59.9
2018-04-29T08:00:44.032Z,59.9
2018-04-29T08:01:34.198Z,60.1
2018-04-29T08:02:24.134Z,60.2
2018-04-29T08:03:13.673Z,60.3
2018-04-29T08:04:03.189Z,60.4
2018-04-29T08:04:54.075Z,60.5
2018-04-29T08:05:44.136Z,60.6
2018-04-29T08:06:33.615Z,60.7
2018-04-29T08:07:23.991Z,60.8
2018-04-29T08:08:14.630Z,60.9
2018-04-29T08:09:04.660Z,61
2018-04-29T08:09:54.850Z,61.1
2018-04-29T08:10:44.373Z,61.1
2018-04-29T08:11:34.859Z,61.2
2018-04-29T08:12:24.954Z,61.3
2018-04-29T08:13:14.740Z,61.4
2018-04-29T08:14:04.853Z,61.5
2018-04-29T08:14:54.929Z,61.6
2018-04-29T08:15:44.581Z,61.6
2018-04-29T08:16:34.744Z,61.8
2018-04-29T08:17:24.418Z,61.8
2018-04-29T08:18:14.819Z,61.9
2018-04-29T08:19:05.470Z,61.9
2018-04-29T08:19:55.259Z,62
2018-04-29T08:20:45.097Z,62.1
2018-04-29T08:21:34.866Z,62.1
2018-04-29T08:22:25.429Z,62.3
2018-04-29T08:23:15.287Z,62.3
2018-04-29T08:24:05.371Z,62.4
2018-04-29T08:24:54.868Z,62.4
2018-04-29T08:25:45.422Z,62.5
2018-04-29T08:26:35.801Z,62.6
2018-04-29T08:27:25.834Z,62.7
2018-04-29T08:28:16.167Z,62.8
2018-04-29T08:29:05.956Z,62.8
2018-04-29T08:29:56.315Z,62.9
2018-04-29T08:30:45.537Z,62.9
2018-04-29T08:31:36.457Z,63
2018-04-29T08:32:26.253Z,63.1
2018-04-29T08:33:16.303Z,63.1
2018-04-29T08:34:06.092Z,63.3
2018-04-29T08:34:56.693Z,63.3
2018-04-29T08:35:45.931Z,63.4
2018-04-29T08:36:36.069Z,63.4
2018-04-29T08:37:26.953Z,63.5
2018-04-29T08:38:17.002Z,63.6
2018-04-29T08:39:06.776Z,63.6
2018-04-29T08:39:56.540Z,63.8
2018-04-29T08:40:46.908Z,63.8
2018-04-29T08:41:37.244Z,63.9
2018-04-29T08:42:26.476Z,64
2018-04-29T08:43:17.283Z,64.1
2018-04-29T08:44:07.151Z,64.1
2018-04-29T08:44:56.940Z,64.1
2018-04-29T08:45:47.287Z,64.3
2018-04-29T08:46:37.139Z,64.3
2018-04-29T08:47:27.129Z,64.4
2018-04-29T08:48:17.743Z,64.4
2018-04-29T08:49:07.279Z,64.5
2018-04-29T08:49:57.894Z,64.6
2018-04-29T08:50:47.938Z,64.7
2018-04-29T08:51:38.030Z,64.7
2018-04-29T08:52:28.100Z,64.8
2018-04-29T08:53:17.894Z,64.9
2018-04-29T08:54:07.934Z,64.9
2018-04-29T08:54:59.201Z,65
2018-04-29T08:55:48.061Z,65.1
2018-04-29T08:56:37.863Z,65.1
2018-04-29T08:57:28.233Z,65.2
2018-04-29T08:58:18.083Z,65.3
2018-04-29T08:59:08.313Z,65.3
2018-04-29T08:59:58.678Z,65.4
2018-04-29T09:00:48.441Z,65.4
2018-04-29T09:01:39.066Z,65.4
2018-04-29T09:02:28.293Z,65.6
2018-04-29T09:03:18.406Z,65.6
2018-04-29T09:04:09.032Z,65.7
2018-04-29T09:04:58.551Z,65.8
2018-04-29T09:05:48.912Z,65.8
2018-04-29T09:06:38.960Z,65.9
2018-04-29T09:07:29.007Z,65.9
2018-04-29T09:08:19.077Z,66
2018-04-29T09:09:09.420Z,66.1
2018-04-29T09:09:59.186Z,66.2
2018-04-29T09:10:49.275Z,66.3
2018-04-29T09:11:39.349Z,66.3
2018-04-29T09:12:29.689Z,66.4
2018-04-29T09:13:19.471Z,66.4
2018-04-29T09:14:09.558Z,66.5
2018-04-29T09:14:59.602Z,66.6
2018-04-29T09:15:49.124Z,66.6
2018-04-29T09:16:39.788Z,66.8
2018-04-29T09:17:29.839Z,66.8
2018-04-29T09:18:20.166Z,66.9
2018-04-29T09:19:10.220Z,66.9
2018-04-29T09:20:00.011Z,67
2018-04-29T09:20:50.102Z,67
2018-04-29T09:21:40.115Z,67.1
2018-04-29T09:22:30.212Z,67.2
2018-04-29T09:23:20.064Z,67.3
2018-04-29T09:24:10.418Z,67.3
2018-04-29T09:25:00.378Z,67.4
2018-04-29T09:25:50.258Z,67.4
2018-04-29T09:26:40.822Z,67.5
2018-04-29T09:27:30.907Z,67.6
2018-04-29T09:28:20.760Z,67.6
2018-04-29T09:29:10.443Z,67.7
2018-04-29T09:30:01.069Z,67.7
2018-04-29T09:30:50.278Z,67.8
2018-04-29T09:31:41.174Z,67.8
2018-04-29T09:32:31.229Z,67.9
2018-04-29T09:33:20.760Z,67.9
2018-04-29T09:34:10.849Z,68.1
2018-04-29T09:35:01.206Z,68.1
2018-04-29T09:35:50.229Z,68.1
2018-04-29T09:36:41.330Z,68.2
2018-04-29T09:37:31.672Z,68.3
2018-04-29T09:38:21.735Z,68.3
2018-04-29T09:39:11.800Z,68.4
2018-04-29T09:40:01.316Z,68.5
2018-04-29T09:40:51.501Z,68.5
2018-04-29T09:41:41.515Z,68.6
2018-04-29T09:42:32.096Z,68.6
2018-04-29T09:43:22.734Z,68.7
2018-04-29T09:44:11.921Z,68.8
2018-04-29T09:45:01.736Z,68.8
2018-04-29T09:45:51.514Z,68.9
2018-04-29T09:46:42.404Z,68.9
2018-04-29T09:47:32.176Z,69
2018-04-29T09:48:22.220Z,69.1
2018-04-29T09:49:11.777Z,69.1
2018-04-29T09:50:02.364Z,69.2
2018-04-29T09:50:51.959Z,69.3
2018-04-29T09:51:42.249Z,69.3
2018-04-29T09:52:32.884Z,69.4
2018-04-29T09:53:22.372Z,69.4
2018-04-29T09:54:12.983Z,69.5
2018-04-29T09:55:02.764Z,69.5
2018-04-29T09:55:53.126Z,69.6
2018-04-29T09:56:42.918Z,69.6
2018-04-29T09:57:32.121Z,69.7
2018-04-29T09:58:22.225Z,69.8
2018-04-29T09:59:13.099Z,69.8
2018-04-29T10:00:03.192Z,69.9
2018-04-29T10:00:52.712Z,69.9
2018-04-29T10:01:42.592Z,70
2018-04-29T10:02:33.172Z,70.1
2018-04-29T10:03:23.207Z,70.1
2018-04-29T10:04:13.528Z,70.1
2018-04-29T10:05:03.016Z,70.2
2018-04-29T10:05:53.359Z,70.3
2018-04-29T10:06:44.000Z,70.3
2018-04-29T10:07:32.947Z,70.4
2018-04-29T10:08:23.811Z,70.4
2018-04-29T10:09:13.652Z,70.5
2018-04-29T10:10:04.001Z,70.6
2018-04-29T10:10:53.498Z,70.6
2018-04-29T10:11:44.390Z,70.7
2018-04-29T10:12:34.162Z,70.7
2018-04-29T10:13:24.537Z,70.8
2018-04-29T10:14:14.318Z,70.8
2018-04-29T10:15:04.110Z,70.9
2018-04-29T10:15:54.748Z,70.9
2018-04-29T10:16:43.653Z,71
2018-04-29T10:17:34.016Z,71.1
2018-04-29T10:18:24.682Z,71.1
2018-04-29T10:19:15.011Z,71.2
2018-04-29T10:20:04.490Z,71.3
2018-04-29T10:20:54.008Z,71.3
2018-04-29T10:21:45.183Z,71.3
2018-04-29T10:22:34.705Z,71.4
2018-04-29T10:23:24.783Z,71.4
2018-04-29T10:24:14.825Z,71.5
2018-04-29T10:25:05.233Z,71.6
2018-04-29T10:25:55.043Z,71.6
2018-04-29T10:26:45.386Z,71.6
2018-04-29T10:27:35.117Z,71.7
2018-04-29T10:28:25.134Z,71.8
2018-04-29T10:29:15.789Z,71.8
2018-04-29T10:30:05.887Z,71.8
2018-04-29T10:30:55.141Z,71.9
2018-04-29T10:31:45.699Z,71.9
2018-04-29T10:32:35.844Z,72
2018-04-29T10:33:25.878Z,72.1
2018-04-29T10:34:15.391Z,72.1
2018-04-29T10:35:05.687Z,72.2
2018-04-29T10:35:55.450Z,72.3
2018-04-29T10:36:45.819Z,72.3
2018-04-29T10:37:36.463Z,71.8
2018-04-29T10:38:25.368Z,71.1
2018-04-29T10:39:16.324Z,70.3
2018-04-29T10:40:06.354Z,70.4
2018-04-29T10:40:56.126Z,71.1
2018-04-29T10:41:46.196Z,72.1
2018-04-29T10:42:36.549Z,72.4
2018-04-29T10:43:26.940Z,72.1
2018-04-29T10:44:17.056Z,71.4
2018-04-29T10:45:06.438Z,70.5
2018-04-29T10:45:56.900Z,70.8
2018-04-29T10:46:47.134Z,71.7
2018-04-29T10:47:36.681Z,72.6
2018-04-29T10:48:27.000Z,73
2018-04-29T10:49:17.087Z,73
2018-04-29T10:50:07.180Z,72.8
2018-04-29T10:50:56.943Z,72.8
2018-04-29T10:51:46.984Z,72.8
2018-04-29T10:52:37.626Z,72.9
2018-04-29T10:53:26.039Z,73
2018-04-29T10:54:17.741Z,73
2018-04-29T10:55:07.289Z,73
2018-04-29T10:55:57.609Z,73.1
2018-04-29T10:56:47.940Z,73.1
2018-04-29T10:57:37.457Z,73.1
2018-04-29T10:58:27.253Z,73.3
2018-04-29T10:59:17.886Z,73.3
2018-04-29T11:00:08.269Z,73.3
2018-04-29T11:00:57.197Z,73.3
2018-04-29T11:01:47.811Z,73.3
2018-04-29T11:02:37.868Z,73.4
2018-04-29T11:03:27.488Z,73.4
2018-04-29T11:04:19.016Z,73.4
2018-04-29T11:05:08.068Z,73.5
2018-04-29T11:05:58.446Z,73.6
2018-04-29T11:06:48.519Z,73.6
2018-04-29T11:07:38.013Z,73.6
2018-04-29T11:08:28.343Z,73.7